createdAt,value
2018-04-02T00:01:33.344Z,77.04
2018-04-02T00:04:00.940Z,77.66
2018-04-02T00:06:28.821Z,77.97
2018-04-02T00:08:56.457Z,76.93
2018-04-02T00:11:24.069Z,76.69
2018-04-02T00:13:51.684Z,77.34
2018-04-02T00:16:19.290Z,77.53
2018-04-02T00:18:47.073Z,76.78
2018-04-02T00:21:14.667Z,76.84
2018-04-02T00:23:42.311Z,77.25
2018-04-02T00:26:09.917Z,77.38
2018-04-02T00:28:37.504Z,77.10
2018-04-02T00:31:05.120Z,77.09
2018-04-02T00:33:32.717Z,77.40
2018-04-02T00:36:00.503Z,77.93
2018-04-02T00:38:28.095Z,77.03
2018-04-02T00:40:55.730Z,77.61
2018-04-02T00:43:23.348Z,77.38
2018-04-02T00:45:50.943Z,77.48
2018-04-02T00:48:18.563Z,77.64
2018-04-02T00:50:46.187Z,77.39
2018-04-02T00:53:13.911Z,77.74
2018-04-02T00:55:41.509Z,77.74
2018-04-02T00:58:09.099Z,77.66
2018-04-02T01:00:36.720Z,77.75
2018-04-02T01:03:04.316Z,77.62
2018-04-02T01:05:31.938Z,78.07
2018-04-02T01:07:59.539Z,78.20
2018-04-02T01:10:27.180Z,78.28
2018-04-02T01:12:54.791Z,78.43
2018-04-02T01:15:22.389Z,77.91
2018-04-02T01:17:50.001Z,77.84
2018-04-02T01:20:17.604Z,78.21
2018-04-02T01:22:45.216Z,77.80
2018-04-02T01:25:12.811Z,78.20
2018-04-02T01:27:40.593Z,78.69
2018-04-02T01:30:08.184Z,78.03
2018-04-02T01:32:35.784Z,77.99
2018-04-02T01:35:03.439Z,77.90
2018-04-02T01:37:31.052Z,78.22
2018-04-02T01:39:59.289Z,78.19
2018-04-02T01:42:26.953Z,78.95
2018-04-02T01:44:54.707Z,78.91
2018-04-02T01:47:22.297Z,78.66
2018-04-02T01:49:49.899Z,78.90
2018-04-02T01:52:17.512Z,78.30
2018-04-02T01:54:45.132Z,77.86
2018-04-02T01:57:13.022Z,78.71
2018-04-02T01:59:40.611Z,77.76
2018-04-02T02:02:08.336Z,78.76
2018-04-02T02:04:35.932Z,78.20
2018-04-02T02:07:03.531Z,78.21
2018-04-02T02:09:31.147Z,77.89
2018-04-02T02:11:58.747Z,78.13
2018-04-02T02:14:26.364Z,77.69
2018-04-02T02:16:53.965Z,78.38
2018-04-02T02:19:21.739Z,78.73
2018-04-02T02:21:49.335Z,78.18
2018-04-02T02:24:16.931Z,78.28
2018-04-02T02:26:44.540Z,78.67
2018-04-02T02:29:12.132Z,79.02
2018-04-02T02:31:39.826Z,78.74
2018-04-02T02:34:08.221Z,78.32
2018-04-02T02:36:35.972Z,78.66
2018-04-02T02:39:03.577Z,78.62
2018-04-02T02:41:31.170Z,78.88
2018-04-02T02:43:58.782Z,78.62
2018-04-02T02:46:26.377Z,79.31
2018-04-02T02:48:53.999Z,79.51
2018-04-02T02:51:21.689Z,79.67
2018-04-02T02:53:49.596Z,79.87
2018-04-02T02:56:17.198Z,79.22
2018-04-02T02:58:44.793Z,79.88
2018-04-02T03:01:12.411Z,79.88
2018-04-02T03:03:40.001Z,79.68
2018-04-02T03:06:07.619Z,79.22
2018-04-02T03:08:35.232Z,79.02
2018-04-02T03:11:03.127Z,78.95
2018-04-02T03:13:30.713Z,78.62
2018-04-02T03:15:58.316Z,78.51
2018-04-02T03:18:25.967Z,78.93
2018-04-02T03:20:53.562Z,79.11
2018-04-02T03:23:21.190Z,79.06
2018-04-02T03:25:48.786Z,79.20
2018-04-02T03:28:16.664Z,79.08
2018-04-02T03:30:44.269Z,78.86
2018-04-02T03:33:11.859Z,78.86
2018-04-02T03:35:39.475Z,78.71
2018-04-02T03:38:07.069Z,78.72
2018-04-02T03:40:34.684Z,78.74
2018-04-02T03:43:02.287Z,78.26
2018-04-02T03:45:29.924Z,78.67
2018-04-02T03:47:57.573Z,78.85
2018-04-02T03:50:25.165Z,78.98
2018-04-02T03:52:52.772Z,79.15
2018-04-02T03:55:20.364Z,78.84
2018-04-02T03:57:47.979Z,78.97
2018-04-02T04:00:15.572Z,79.16
2018-04-02T04:02:43.525Z,79.25
2018-04-02T04:05:11.200Z,79.22
2018-04-02T04:07:38.789Z,79.23
2018-04-02T04:10:06.484Z,79.54
2018-04-02T04:12:34.149Z,80.10
2018-04-02T04:15:01.769Z,80.11
2018-04-02T04:17:29.369Z,80.10
2018-04-02T04:19:57.264Z,79.69
2018-04-02T04:22:24.855Z,79.67
2018-04-02T04:24:52.443Z,79.20
2018-04-02T04:27:20.077Z,79.64
2018-04-02T04:29:47.755Z,79.87
2018-04-02T04:32:15.477Z,80.12
2018-04-02T04:34:43.145Z,80.94
2018-04-02T04:37:10.995Z,80.96
2018-04-02T04:39:38.660Z,80.65
2018-04-02T04:42:06.333Z,80.81
2018-04-02T04:44:34.031Z,81.18
2018-04-02T04:47:01.707Z,80.83
2018-04-02T04:49:29.396Z,80.75
2018-04-02T04:51:57.064Z,80.75
2018-04-02T04:54:25.052Z,81.11
2018-04-02T04:56:52.721Z,80.91
2018-04-02T04:59:20.407Z,81.07
2018-04-02T05:01:48.112Z,81.33
2018-04-02T05:04:15.783Z,80.83
2018-04-02T05:06:43.475Z,80.85
2018-04-02T05:09:11.143Z,80.78
2018-04-02T05:11:38.857Z,80.54
2018-04-02T05:14:06.584Z,80.60
2018-04-02T05:16:34.257Z,80.50
2018-04-02T05:19:01.952Z,80.36
2018-04-02T05:21:29.636Z,80.89
2018-04-02T05:23:57.340Z,80.87
2018-04-02T05:26:25.008Z,80.84
2018-04-02T05:28:52.844Z,80.59
2018-04-02T05:31:20.433Z,80.33
2018-04-02T05:33:48.035Z,79.66
2018-04-02T05:36:15.648Z,79.50
2018-04-02T05:38:43.235Z,79.88
2018-04-02T05:41:10.841Z,79.79
2018-04-02T05:43:38.439Z,79.60
2018-04-02T05:46:06.071Z,79.33
2018-04-02T05:48:33.666Z,78.86
2018-04-02T05:51:01.284Z,78.34
2018-04-02T05:53:28.896Z,78.71
2018-04-02T05:55:56.498Z,78.98
2018-04-02T05:58:24.131Z,78.86
2018-04-02T06:00:51.724Z,78.42
2018-04-02T06:03:19.347Z,78.81
2018-04-02T06:05:46.952Z,78.62
2018-04-02T06:08:14.586Z,78.45
2018-04-02T06:10:42.273Z,78.85
2018-04-02T06:13:09.873Z,78.98
2018-04-02T06:15:37.589Z,79.22
2018-04-02T06:18:05.176Z,79.11
2018-04-02T06:20:32.903Z,79.41
2018-04-02T06:23:00.499Z,78.76
2018-04-02T06:25:28.199Z,78.99
2018-04-02T06:27:55.793Z,78.86
2018-04-02T06:30:23.383Z,78.37
2018-04-02T06:32:50.997Z,78.53
2018-04-02T06:35:18.598Z,78.15
2018-04-02T06:37:46.297Z,78.29
2018-04-02T06:40:13.897Z,78.24
2018-04-02T06:42:41.875Z,78.33
2018-04-02T06:45:09.483Z,77.32
2018-04-02T06:47:37.067Z,77.40
2018-04-02T06:50:04.691Z,77.42
2018-04-02T06:52:32.288Z,77.17
2018-04-02T06:55:00.195Z,77.09
2018-04-02T06:57:27.821Z,77.19
2018-04-02T06:59:55.413Z,76.77
2018-04-02T07:02:23.032Z,76.56
2018-04-02T07:04:50.623Z,76.55
2018-04-02T07:07:18.605Z,76.20
2018-04-02T07:09:46.822Z,76.03
2018-04-02T07:12:14.423Z,76.27
2018-04-02T07:14:42.045Z,76.27
2018-04-02T07:17:09.647Z,75.62
2018-04-02T07:19:37.255Z,75.00
2018-04-02T07:22:04.847Z,74.60
2018-04-02T07:24:32.505Z,73.93
2018-04-02T07:27:00.116Z,73.95
2018-04-02T07:29:27.715Z,73.60
2018-04-02T07:31:55.358Z,72.82
2018-04-02T07:34:22.954Z,72.51
2018-04-02T07:36:50.571Z,72.45
2018-04-02T07:39:18.170Z,72.30
2018-04-02T07:41:45.988Z,71.63
2018-04-02T07:44:13.584Z,70.83
2018-04-02T07:46:41.173Z,71.10
2018-04-02T07:49:08.792Z,70.40
2018-04-02T07:51:36.538Z,70.93
2018-04-02T07:54:04.164Z,70.14
2018-04-02T07:56:31.761Z,70.14
2018-04-02T07:58:59.393Z,70.05
2018-04-02T08:01:26.993Z,70.42
2018-04-02T08:03:54.591Z,69.56
2018-04-02T08:06:22.309Z,69.51
2018-04-02T08:08:49.900Z,69.12
2018-04-02T08:11:17.562Z,68.33
2018-04-02T08:13:45.151Z,68.96
2018-04-02T08:16:12.880Z,68.17
2018-04-02T08:18:40.468Z,68.36
2018-04-02T08:21:08.063Z,68.07
2018-04-02T08:23:35.680Z,66.09
2018-04-02T08:26:03.293Z,66.21
2018-04-02T08:28:30.908Z,65.76
2018-04-02T08:30:58.496Z,64.40
2018-04-02T08:33:26.122Z,64.63
2018-04-02T08:35:53.720Z,64.96
2018-04-02T08:38:21.306Z,65.66
2018-04-02T08:40:48.926Z,64.47
2018-04-02T08:43:16.525Z,63.94
2018-04-02T08:45:44.147Z,64.11
2018-04-02T08:48:11.740Z,63.12
2018-04-02T08:50:39.702Z,62.67
2018-04-02T08:53:07.296Z,62.44
2018-04-02T08:55:34.898Z,63.08
2018-04-02T08:58:02.512Z,60.91
2018-04-02T09:00:30.103Z,60.75
2018-04-02T09:02:57.722Z,58.72
2018-04-02T09:05:25.327Z,58.14
2018-04-02T09:07:52.981Z,59.56
2018-04-02T09:10:20.560Z,59.38
2018-04-02T09:12:48.173Z,58.27
2018-04-02T09:15:15.781Z,55.32
2018-04-02T09:17:43.380Z,56.46
2018-04-02T09:20:10.990Z,55.45
2018-04-02T09:22:38.577Z,53.48
2018-04-02T09:25:06.459Z,53.82
2018-04-02T09:27:34.064Z,54.28
2018-04-02T09:30:01.657Z,55.17
2018-04-02T09:32:29.271Z,53.25
2018-04-02T09:34:56.861Z,51.82
2018-04-02T09:37:24.480Z,50.33
2018-04-02T09:39:52.072Z,50.91
2018-04-02T09:42:19.705Z,51.26
2018-04-02T09:44:47.311Z,52.21
2018-04-02T09:47:14.904Z,51.22
2018-04-02T09:49:42.515Z,52.32
2018-04-02T09:52:10.122Z,51.22
2018-04-02T09:54:38.131Z,49.35
2018-04-02T09:57:05.782Z,48.18
2018-04-02T09:59:33.532Z,48.06
2018-04-02T10:02:16.017Z,48.96
2018-04-02T10:04:43.738Z,49.13
2018-04-02T10:07:11.264Z,48.89
2018-04-02T10:09:38.851Z,48.03
2018-04-02T10:12:06.487Z,48.62
2018-04-02T10:14:34.086Z,48.02
2018-04-02T10:17:01.700Z,48.63
2018-04-02T10:19:29.284Z,48.20
2018-04-02T10:21:57.044Z,50.91
2018-04-02T10:24:24.632Z,47.96
2018-04-02T10:26:52.224Z,46.72
2018-04-02T10:29:19.847Z,48.03
2018-04-02T10:31:47.444Z,47.22
2018-04-02T10:34:15.065Z,47.36
2018-04-02T10:36:42.661Z,47.64
2018-04-02T10:39:10.672Z,47.53
2018-04-02T10:41:38.269Z,46.15
2018-04-02T10:44:05.851Z,45.47
2018-04-02T10:46:33.460Z,44.71
2018-04-02T10:49:01.054Z,45.12
2018-04-02T10:51:28.674Z,45.22
2018-04-02T10:53:56.320Z,46.05
2018-04-02T10:56:23.912Z,46.39
2018-04-02T10:58:51.505Z,45.48
2018-04-02T11:01:19.158Z,44.72
2018-04-02T11:03:46.763Z,45.81
2018-04-02T11:06:14.375Z,45.31
2018-04-02T11:08:42.014Z,44.61
2018-04-02T11:11:09.596Z,44.62
2018-04-02T11:13:37.221Z,45.18
2018-04-02T11:16:04.810Z,45.15
2018-04-02T11:18:32.683Z,43.72
2018-04-02T11:21:00.268Z,45.30
2018-04-02T11:23:27.860Z,43.73
2018-04-02T11:25:55.470Z,43.41
2018-04-02T11:28:23.061Z,42.79
2018-04-02T11:30:50.972Z,43.03
2018-04-02T11:33:18.559Z,42.74
2018-04-02T11:35:46.180Z,43.48
2018-04-02T11:38:13.804Z,43.21
2018-04-02T11:40:41.383Z,42.19
2018-04-02T11:43:09.189Z,42.62
2018-04-02T11:45:36.771Z,41.88
2018-04-02T11:48:04.456Z,41.95
2018-04-02T11:50:32.034Z,41.47
2018-04-02T11:52:59.624Z,40.38
2018-04-02T11:55:27.247Z,43.95
2018-04-02T11:57:54.840Z,40.76
2018-04-02T12:00:22.604Z,40.75
2018-04-02T12:02:50.916Z,40.54
2018-04-02T12:05:18.510Z,41.05
2018-04-02T12:07:46.120Z,40.38
2018-04-02T12:10:13.710Z,39.43
2018-04-02T12:12:41.319Z,39.23
2018-04-02T12:15:08.915Z,39.49
2018-04-02T12:17:36.533Z,39.36
2018-04-02T12:20:04.131Z,39.34
2018-04-02T12:22:31.720Z,38.59
2018-04-02T12:24:59.430Z,37.85
2018-04-02T12:27:27.019Z,36.99
2018-04-02T12:29:54.627Z,37.23
2018-04-02T12:32:22.247Z,36.71
2018-04-02T12:34:50.092Z,37.30
2018-04-02T12:37:17.687Z,38.26
2018-04-02T12:39:45.281Z,35.72
2018-04-02T12:42:12.884Z,35.97
2018-04-02T12:44:40.473Z,36.29
2018-04-02T12:47:08.181Z,34.75
2018-04-02T12:49:35.755Z,33.64
2018-04-02T12:52:03.615Z,33.00
2018-04-02T12:54:31.217Z,32.16
2018-04-02T12:56:58.809Z,32.00
2018-04-02T12:59:26.450Z,31.58
2018-04-02T13:01:54.043Z,29.76
2018-04-02T13:04:21.643Z,30.21
2018-04-02T13:06:49.229Z,29.71
2018-04-02T13:09:16.875Z,29.66
2018-04-02T13:11:44.461Z,29.58
2018-04-02T13:14:12.065Z,28.70
2018-04-02T13:16:39.683Z,28.52
2018-04-02T13:19:07.287Z,29.75
2018-04-02T13:21:34.895Z,29.72
2018-04-02T13:24:02.529Z,29.74
2018-04-02T13:26:30.783Z,30.05
2018-04-02T13:28:58.373Z,31.10
2018-04-02T13:31:25.999Z,30.21
2018-04-02T13:33:53.594Z,30.03
2018-04-02T13:36:21.196Z,30.28
2018-04-02T13:38:49.211Z,31.73
2018-04-02T13:41:16.796Z,31.65
2018-04-02T13:43:44.383Z,31.76
2018-04-02T13:46:11.991Z,32.69
2018-04-02T13:48:39.602Z,32.96
2018-04-02T13:51:07.380Z,30.31
2018-04-02T13:53:34.980Z,29.06
2018-04-02T13:56:02.579Z,26.25
2018-04-02T13:58:30.188Z,26.28
2018-04-02T14:00:57.866Z,26.18
2018-04-02T14:03:25.725Z,25.84
2018-04-02T14:05:53.336Z,26.62
2018-04-02T14:08:20.939Z,25.53
2018-04-02T14:10:48.607Z,26.11
2018-04-02T14:13:16.174Z,26.60
2018-04-02T14:15:43.781Z,25.67
2018-04-02T14:18:11.366Z,26.77
2018-04-02T14:20:39.088Z,27.98
2018-04-02T14:23:06.685Z,27.50
2018-04-02T14:25:34.275Z,27.76
2018-04-02T14:28:01.896Z,29.07
2018-04-02T14:30:29.488Z,28.55
2018-04-02T14:32:57.101Z,28.89
2018-04-02T14:35:24.703Z,29.76
2018-04-02T14:37:52.693Z,30.74
2018-04-02T14:40:20.288Z,32.25
2018-04-02T14:42:47.914Z,31.91
2018-04-02T14:45:15.578Z,31.99
2018-04-02T14:47:43.167Z,31.22
2018-04-02T14:50:10.780Z,31.01
2018-04-02T14:52:38.376Z,31.77
2018-04-02T14:55:06.229Z,32.82
2018-04-02T14:57:33.804Z,32.13
2018-04-02T15:00:01.404Z,32.62
2018-04-02T15:02:29.063Z,33.74
2018-04-02T15:04:56.654Z,34.77
2018-04-02T15:07:24.269Z,34.78
2018-04-02T15:09:51.868Z,34.30
2018-04-02T15:12:19.513Z,34.79
2018-04-02T15:14:47.100Z,35.50
2018-04-02T15:17:14.690Z,33.30
2018-04-02T15:19:42.304Z,32.71
2018-04-02T15:22:09.896Z,32.12
2018-04-02T15:24:37.515Z,31.80
2018-04-02T15:27:05.109Z,32.03
2018-04-02T15:29:32.905Z,32.18
2018-04-02T15:32:00.498Z,31.75
2018-04-02T15:34:28.083Z,32.91
2018-04-02T15:36:55.691Z,32.72
2018-04-02T15:39:23.338Z,32.96
2018-04-02T15:41:50.943Z,32.62
2018-04-02T15:44:18.561Z,32.54
2018-04-02T15:46:46.637Z,32.86
2018-04-02T15:49:15.975Z,32.62
2018-04-02T15:51:43.728Z,32.79
2018-04-02T15:54:11.341Z,33.06
2018-04-02T15:56:38.952Z,33.99
2018-04-02T15:59:06.570Z,35.20
2018-04-02T16:01:34.160Z,33.91
2018-04-02T16:04:02.485Z,34.17
2018-04-02T16:06:30.237Z,33.69
2018-04-02T16:08:57.819Z,33.48
2018-04-02T16:11:25.465Z,33.63
2018-04-02T16:13:53.056Z,33.38
2018-04-02T16:16:20.660Z,32.98
2018-04-02T16:18:48.247Z,33.38
2018-04-02T16:21:15.866Z,33.14
2018-04-02T16:23:43.458Z,33.30
2018-04-02T16:26:11.061Z,33.68
2018-04-02T16:28:38.676Z,33.81
2018-04-02T16:31:06.260Z,34.53
2018-04-02T16:33:33.875Z,34.94
2018-04-02T16:36:01.469Z,35.05
2018-04-02T16:38:29.260Z,35.27
2018-04-02T16:40:56.865Z,36.21
2018-04-02T16:43:24.484Z,36.69
2018-04-02T16:45:52.099Z,36.89
2018-04-02T16:48:19.688Z,37.84
2018-04-02T16:50:47.303Z,38.54
2018-04-02T16:53:14.892Z,38.54
2018-04-02T16:55:42.752Z,39.92
2018-04-02T16:58:10.341Z,39.59
2018-04-02T17:00:37.937Z,40.09
2018-04-02T17:03:05.564Z,39.66
2018-04-02T17:05:33.152Z,40.25
2018-04-02T17:08:00.769Z,40.36
2018-04-02T17:10:32.441Z,40.01
2018-04-02T17:13:00.230Z,40.17
2018-04-02T17:15:27.816Z,40.52
2018-04-02T17:17:56.390Z,40.20
2018-04-02T17:20:24.000Z,40.87
2018-04-02T17:22:51.584Z,40.83
2018-04-02T17:25:19.195Z,41.07
2018-04-02T17:27:46.780Z,40.76
2018-04-02T17:30:14.683Z,40.95
2018-04-02T17:32:42.274Z,40.79
2018-04-02T17:35:09.870Z,41.48
2018-04-02T17:37:37.517Z,41.37
2018-04-02T17:40:05.110Z,40.83
2018-04-02T17:42:32.723Z,40.70
2018-04-02T17:45:00.307Z,40.66
2018-04-02T17:47:28.212Z,40.83
2018-04-02T17:49:55.803Z,40.94
2018-04-02T17:52:23.392Z,41.09
2018-04-02T17:54:51.011Z,41.15
2018-04-02T17:57:18.603Z,41.89
2018-04-02T17:59:46.221Z,42.07
2018-04-02T18:02:13.812Z,41.42
2018-04-02T18:04:41.816Z,41.38
2018-04-02T18:07:09.416Z,41.90
2018-04-02T18:09:37.008Z,41.76
2018-04-02T18:12:04.635Z,42.45
2018-04-02T18:14:32.223Z,41.54
2018-04-02T18:16:59.835Z,41.58
2018-04-02T18:19:27.422Z,42.64
2018-04-02T18:21:55.132Z,41.72
2018-04-02T18:24:22.722Z,41.55
2018-04-02T18:26:50.495Z,41.94
2018-04-02T18:29:18.173Z,42.08
2018-04-02T18:31:45.761Z,42.40
2018-04-02T18:34:13.392Z,42.44
2018-04-02T18:36:40.979Z,42.38
2018-04-02T18:39:08.586Z,42.52
2018-04-02T18:41:36.206Z,42.01
2018-04-02T18:44:03.824Z,42.18
2018-04-02T18:46:31.707Z,42.78
2018-04-02T18:48:59.665Z,42.16
2018-04-02T18:51:27.255Z,42.88
2018-04-02T18:53:54.844Z,42.14
2018-04-02T18:56:22.457Z,42.54
2018-04-02T18:58:50.049Z,42.87
2018-04-02T19:01:17.665Z,42.98
2018-04-02T19:03:45.247Z,42.98
2018-04-02T19:06:13.103Z,42.55
2018-04-02T19:08:40.733Z,43.22
2018-04-02T19:11:08.302Z,43.31
2018-04-02T19:13:35.914Z,44.04
2018-04-02T19:16:03.500Z,43.54
2018-04-02T19:18:31.448Z,43.33
2018-04-02T19:20:59.045Z,43.57
2018-04-02T19:23:26.643Z,43.86
2018-04-02T19:25:54.260Z,44.56
2018-04-02T19:28:21.847Z,43.96
2018-04-02T19:30:49.451Z,44.75
2018-04-02T19:33:17.048Z,44.52
2018-04-02T19:35:44.907Z,44.17
2018-04-02T19:38:12.466Z,44.07
2018-04-02T19:40:40.056Z,44.34
2018-04-02T19:43:07.673Z,44.33
2018-04-02T19:45:35.255Z,44.39
2018-04-02T19:48:02.869Z,44.41
2018-04-02T19:50:30.491Z,44.70
2018-04-02T19:52:58.077Z,44.99
2018-04-02T19:55:25.696Z,44.55
2018-04-02T19:57:53.292Z,44.97
2018-04-02T20:00:21.172Z,45.19
2018-04-02T20:02:48.774Z,44.67
2018-04-02T20:05:16.367Z,44.92
2018-04-02T20:07:43.993Z,44.98
2018-04-02T20:10:11.604Z,45.08
2018-04-02T20:12:39.375Z,44.97
2018-04-02T20:15:06.961Z,45.02
2018-04-02T20:17:34.696Z,44.93
2018-04-02T20:20:02.360Z,44.85
2018-04-02T20:22:29.958Z,44.81
2018-04-02T20:24:57.573Z,44.87
2018-04-02T20:27:25.176Z,44.84
2018-04-02T20:29:52.797Z,44.44
2018-04-02T20:32:20.399Z,44.11
2018-04-02T20:34:48.016Z,44.30
2018-04-02T20:37:15.604Z,44.21
2018-04-02T20:39:43.200Z,44.40
2018-04-02T20:42:11.716Z,45.29
2018-04-02T20:44:39.801Z,44.46
2018-04-02T20:47:07.427Z,44.07
2018-04-02T20:49:35.011Z,44.78
2018-04-02T20:52:02.786Z,45.22
2018-04-02T20:54:30.374Z,46.39
2018-04-02T20:56:57.960Z,46.17
2018-04-02T20:59:25.573Z,45.83
2018-04-02T21:01:53.172Z,45.93
2018-04-02T21:04:20.784Z,46.58
2018-04-02T21:06:48.385Z,46.14
2018-04-02T21:09:16.106Z,46.17
2018-04-02T21:11:43.700Z,46.39
2018-04-02T21:14:11.298Z,46.24
2018-04-02T21:16:38.918Z,46.26
2018-04-02T21:19:06.507Z,45.37
2018-04-02T21:21:34.107Z,45.67
2018-04-02T21:24:01.688Z,46.24
2018-04-02T21:26:29.344Z,46.19
2018-04-02T21:28:56.928Z,46.00
2018-04-02T21:31:24.553Z,45.66
2018-04-02T21:33:52.178Z,46.07
2018-04-02T21:36:19.771Z,45.99
2018-04-02T21:38:47.384Z,45.38
2018-04-02T21:41:15.027Z,45.07
2018-04-02T21:43:42.758Z,45.47
2018-04-02T21:46:10.340Z,45.86
2018-04-02T21:48:37.924Z,45.35
2018-04-02T21:51:05.533Z,45.48
2018-04-02T21:53:33.134Z,45.25
2018-04-02T21:56:00.740Z,45.10
2018-04-02T21:58:28.342Z,45.24
2018-04-02T22:00:56.208Z,45.87
2018-04-02T22:03:23.799Z,45.65
2018-04-02T22:05:51.388Z,45.16
2018-04-02T22:08:18.999Z,45.85
2018-04-02T22:10:46.594Z,45.13
2018-04-02T22:13:14.211Z,45.28
2018-04-02T22:15:41.800Z,44.76
2018-04-02T22:18:09.412Z,44.83
2018-04-02T22:20:37.007Z,45.32
2018-04-02T22:23:04.597Z,45.84
2018-04-02T22:25:32.203Z,45.84
2018-04-02T22:27:59.791Z,46.00
2018-04-02T22:30:27.400Z,45.63
2018-04-02T22:32:55.010Z,46.38
2018-04-02T22:35:22.759Z,46.57
2018-04-02T22:37:50.340Z,47.14
2018-04-02T22:40:17.932Z,46.72
2018-04-02T22:42:45.799Z,47.22
2018-04-02T22:45:13.438Z,47.56
2018-04-02T22:47:41.062Z,47.45
2018-04-02T22:50:08.663Z,47.79
2018-04-02T22:52:36.308Z,47.17
2018-04-02T22:55:03.901Z,47.44
2018-04-02T22:57:31.486Z,47.82
2018-04-02T22:59:59.098Z,46.97
2018-04-02T23:02:26.691Z,47.17
2018-04-02T23:04:54.310Z,47.47
2018-04-02T23:07:21.907Z,47.13
2018-04-02T23:09:49.715Z,47.37
2018-04-02T23:12:17.295Z,47.78
2018-04-02T23:14:44.881Z,47.64
2018-04-02T23:17:12.503Z,47.74
2018-04-02T23:19:40.190Z,47.10
2018-04-02T23:22:07.803Z,47.15
2018-04-02T23:24:35.404Z,47.75
2018-04-02T23:27:03.343Z,47.34
2018-04-02T23:29:30.940Z,47.32
2018-04-02T23:31:58.585Z,47.74
2018-04-02T23:34:26.192Z,47.51
2018-04-02T23:36:53.790Z,47.39
2018-04-02T23:39:21.391Z,47.80
2018-04-02T23:41:48.965Z,47.60
2018-04-02T23:44:16.575Z,47.74
2018-04-02T23:46:44.196Z,47.51
2018-04-02T23:49:11.784Z,47.96
2018-04-02T23:51:39.397Z,46.95
2018-04-02T23:54:06.984Z,47.76
2018-04-02T23:56:34.588Z,48.24
2018-04-02T23:59:02.197Z,48.28
